Time;durP1;ratioP1;P1;durP2;ratioP2;P2;SDS_P1;SDS_P2;PMS_P1;PMS_P2;Temp;Humidity;BMP_temperature;BMP_pressure;BME280_temperature;BME280_humidity;BME280_pressure;Samples;Min_cycle;Max_cycle;Signal;HPM_P1;HPM_P2
2020/12/09 00:01:51;;;;;;;11.80;7.45;;;3.20;99.90;;;;;;5054642;28;20478;-62
2020/12/09 00:04:18;;;;;;;11.35;6.13;;;3.30;99.90;;;;;;5055464;28;20461;-60
2020/12/09 00:06:45;;;;;;;12.18;6.40;;;3.40;99.90;;;;;;5054413;28;20418;-60
2020/12/09 00:09:13;;;;;;;14.15;6.63;;;3.30;99.90;;;;;;5054788;28;20437;-60
2020/12/09 00:11:41;;;;;;;13.68;5.95;;;3.40;99.90;;;;;;5054551;28;20928;-61
2020/12/09 00:14:08;;;;;;;12.88;6.47;;;3.50;99.90;;;;;;5054897;28;20459;-61
2020/12/09 00:16:35;;;;;;;12.90;6.45;;;3.50;99.90;;;;;;5054435;28;20449;-61
2020/12/09 00:19:03;;;;;;;13.88;7.03;;;3.60;99.90;;;;;;5054641;28;20487;-61
2020/12/09 00:21:32;;;;;;;13.05;6.28;;;3.60;99.90;;;;;;5054485;28;20428;-61
2020/12/09 00:23:59;;;;;;;14.35;6.68;;;3.60;99.90;;;;;;5054473;28;20843;-61
2020/12/09 00:26:26;;;;;;;12.55;6.07;;;3.60;99.90;;;;;;5054158;28;20502;-61
2020/12/09 00:28:54;;;;;;;14.07;7.30;;;3.70;99.90;;;;;;5054699;28;20498;-61
2020/12/09 00:31:24;;;;;;;13.87;6.47;;;3.80;99.90;;;;;;5053711;28;20440;-61
2020/12/09 00:33:51;;;;;;;11.67;6.10;;;3.80;99.90;;;;;;5054164;28;20854;-61
2020/12/09 00:36:19;;;;;;;13.07;6.85;;;3.70;99.90;;;;;;5054734;28;20844;-61
2020/12/09 00:38:47;;;;;;;14.43;6.50;;;3.70;99.90;;;;;;5053356;28;20729;-61
2020/12/09 00:41:14;;;;;;;14.45;6.43;;;3.70;99.90;;;;;;5054410;28;20417;-61
2020/12/09 00:43:41;;;;;;;12.18;6.07;;;3.60;99.90;;;;;;5054625;28;20787;-61
2020/12/09 00:46:07;;;;;;;11.17;5.80;;;3.50;99.90;;;;;;5054105;28;20490;-61
2020/12/09 00:48:34;;;;;;;15.10;6.57;;;3.50;99.90;;;;;;5054889;28;20437;-61
2020/12/09 00:51:01;;;;;;;11.43;5.82;;;3.50;99.90;;;;;;5054318;28;20437;-61
2020/12/09 00:53:27;;;;;;;11.48;5.88;;;3.40;99.90;;;;;;5053502;28;20433;-61
2020/12/09 00:55:54;;;;;;;12.98;6.50;;;3.50;99.90;;;;;;5053952;28;20413;-61
2020/12/09 00:58:21;;;;;;;13.38;5.47;;;3.50;99.90;;;;;;5052478;28;20718;-61
2020/12/09 01:00:47;;;;;;;12.20;5.75;;;3.50;99.90;;;;;;5052242;28;20813;-61
2020/12/09 01:03:14;;;;;;;12.85;5.95;;;3.40;99.90;;;;;;5052816;28;20828;-61
2020/12/09 01:05:41;;;;;;;14.23;6.53;;;3.40;99.90;;;;;;5052794;28;20470;-61
2020/12/09 01:08:08;;;;;;;12.35;6.53;;;3.40;99.90;;;;;;5053421;28;20425;-61
2020/12/09 01:10:34;;;;;;;13.43;6.05;;;3.50;99.90;;;;;;5052164;28;20469;-61
2020/12/09 01:13:01;;;;;;;16.02;6.80;;;3.50;99.90;;;;;;5054313;28;20465;-61
2020/12/09 01:15:27;;;;;;;12.68;5.93;;;3.50;99.90;;;;;;5054435;28;20518;-61
2020/12/09 01:17:53;;;;;;;12.45;6.13;;;3.40;99.90;;;;;;5053660;28;20433;-61
2020/12/09 01:20:22;;;;;;;11.77;6.07;;;3.30;99.90;;;;;;5053658;28;20418;-61
2020/12/09 01:22:49;;;;;;;12.02;5.72;;;3.20;99.90;;;;;;5053086;28;20801;-61
2020/12/09 01:25:16;;;;;;;11.77;6.10;;;3.20;99.90;;;;;;5053063;28;20890;-61
2020/12/09 01:27:42;;;;;;;11.05;6.30;;;3.20;99.90;;;;;;5053575;28;20417;-61
2020/12/09 01:30:09;;;;;;;14.57;6.63;;;3.30;99.90;;;;;;5053689;28;20490;-61
2020/12/09 01:32:35;;;;;;;12.80;6.03;;;3.40;99.90;;;;;;5053153;28;20798;-60
2020/12/09 01:35:02;;;;;;;14.02;6.50;;;3.50;99.90;;;;;;5052330;28;21045;-61
2020/12/09 01:37:28;;;;;;;13.02;6.80;;;3.60;99.90;;;;;;5053919;28;20482;-61
2020/12/09 01:39:56;;;;;;;14.93;8.05;;;3.70;99.90;;;;;;5053876;28;20780;-62
2020/12/09 01:42:22;;;;;;;14.88;6.90;;;3.80;99.90;;;;;;5053980;28;20470;-62
2020/12/09 01:44:48;;;;;;;13.70;6.70;;;3.80;99.90;;;;;;5054231;28;20460;-61
2020/12/09 01:47:15;;;;;;;16.42;6.78;;;3.80;99.90;;;;;;5054137;28;20417;-62
2020/12/09 01:49:42;;;;;;;13.93;6.80;;;3.80;99.90;;;;;;5053886;28;20437;-62
2020/12/09 01:52:09;;;;;;;13.07;6.33;;;3.70;99.90;;;;;;5053841;28;20425;-62
2020/12/09 01:54:35;;;;;;;12.70;6.57;;;3.70;99.90;;;;;;5054297;28;20486;-62
2020/12/09 01:57:08;;;;;;;13.30;7.03;;;3.80;99.90;;;;;;5053922;28;20495;-62
2020/12/09 01:59:35;;;;;;;13.82;7.60;;;3.80;99.90;;;;;;5054210;28;20718;-61
2020/12/09 02:02:02;;;;;;;14.00;7.20;;;3.80;99.90;;;;;;5053186;28;20478;-62
2020/12/09 02:04:29;;;;;;;16.77;7.95;;;3.70;99.90;;;;;;5053114;28;20436;-62
2020/12/09 02:06:56;;;;;;;13.00;7.10;;;3.60;99.90;;;;;;5054046;28;20779;-62
2020/12/09 02:09:23;;;;;;;10.85;5.90;;;3.60;99.90;;;;;;5053769;28;20433;-61
2020/12/09 02:11:50;;;;;;;13.10;7.40;;;3.60;99.90;;;;;;5052687;28;20497;-61
2020/12/09 02:14:18;;;;;;;15.40;7.53;;;3.70;99.90;;;;;;5052875;28;20429;-62
2020/12/09 02:16:48;;;;;;;14.80;7.47;;;3.70;99.90;;;;;;5053339;28;20733;-62
2020/12/09 02:19:15;;;;;;;17.05;8.30;;;3.60;99.90;;;;;;5053394;28;20461;-63
2020/12/09 02:21:42;;;;;;;14.00;7.38;;;3.60;99.90;;;;;;5055048;28;20452;-62
2020/12/09 02:24:09;;;;;;;15.00;6.75;;;3.50;99.90;;;;;;5057054;28;20832;-62
2020/12/09 02:26:40;;;;;;;14.23;7.65;;;3.40;99.90;;;;;;5057043;28;20452;-62
2020/12/09 02:29:06;;;;;;;12.50;7.73;;;3.40;99.90;;;;;;5057445;28;20733;-61
2020/12/09 02:31:33;;;;;;;14.27;7.45;;;3.50;99.90;;;;;;5056609;28;20452;-62
2020/12/09 02:34:02;;;;;;;13.85;7.05;;;3.40;99.90;;;;;;5057375;28;20732;-62
2020/12/09 02:36:29;;;;;;;14.15;6.80;;;3.50;99.90;;;;;;5056422;28;20777;-61
2020/12/09 02:38:57;;;;;;;11.93;6.63;;;3.60;99.90;;;;;;5057334;28;20480;-61
2020/12/09 02:41:23;;;;;;;15.17;7.43;;;3.70;99.90;;;;;;5057512;28;20507;-62
2020/12/09 02:43:50;;;;;;;16.40;6.75;;;3.80;99.90;;;;;;5057036;28;20490;-62
2020/12/09 02:46:17;;;;;;;14.10;6.80;;;3.80;99.90;;;;;;5057662;28;20443;-62
2020/12/09 02:48:43;;;;;;;14.30;7.30;;;3.80;99.90;;;;;;5057098;28;20556;-62
2020/12/09 02:51:10;;;;;;;12.55;7.05;;;3.80;99.90;;;;;;5056480;28;20530;-62
2020/12/09 02:53:36;;;;;;;14.70;7.17;;;3.90;99.90;;;;;;5056728;28;20507;-62
2020/12/09 02:56:04;;;;;;;12.35;7.05;;;3.90;99.90;;;;;;5056717;28;20417;-62
2020/12/09 02:58:30;;;;;;;17.88;7.45;;;3.80;99.90;;;;;;5056683;28;20427;-62
2020/12/09 03:00:57;;;;;;;12.10;6.55;;;3.80;99.90;;;;;;5056209;28;20417;-62
2020/12/09 03:03:23;;;;;;;12.20;6.45;;;3.90;99.90;;;;;;5056909;28;20467;-62
2020/12/09 03:05:50;;;;;;;14.77;6.85;;;4.00;99.90;;;;;;5056771;28;20425;-62
2020/12/09 03:08:17;;;;;;;15.10;8.20;;;3.80;99.90;;;;;;5056517;28;20448;-62
2020/12/09 03:10:43;;;;;;;13.43;7.35;;;3.80;99.90;;;;;;5056376;28;20845;-62
2020/12/09 03:13:10;;;;;;;14.03;7.03;;;3.80;99.90;;;;;;5055885;28;20483;-62
2020/12/09 03:15:37;;;;;;;13.80;8.20;;;3.90;99.90;;;;;;5055955;28;20518;-61
2020/12/09 03:18:03;;;;;;;12.10;7.03;;;3.80;99.90;;;;;;5056148;28;20456;-61
2020/12/09 03:20:30;;;;;;;14.60;8.07;;;3.80;99.90;;;;;;5056009;28;20913;-62
2020/12/09 03:22:56;;;;;;;15.30;7.70;;;3.80;99.90;;;;;;5056648;28;20425;-61
2020/12/09 03:25:23;;;;;;;15.27;7.72;;;3.80;99.90;;;;;;5055631;28;20883;-62
2020/12/09 03:27:49;;;;;;;13.15;7.60;;;3.90;99.90;;;;;;5056141;28;20445;-61
2020/12/09 03:30:17;;;;;;;16.00;8.15;;;3.90;99.90;;;;;;5055092;28;20433;-62
2020/12/09 03:32:43;;;;;;;13.35;7.00;;;3.90;99.90;;;;;;5055021;28;20709;-61
2020/12/09 03:35:10;;;;;;;13.90;6.95;;;3.90;99.90;;;;;;5055764;28;20418;-62
2020/12/09 03:37:36;;;;;;;13.55;7.63;;;3.80;99.90;;;;;;5055856;28;20476;-61
2020/12/09 03:40:03;;;;;;;13.30;7.43;;;3.70;99.90;;;;;;5055938;28;20938;-62
2020/12/09 03:42:29;;;;;;;12.88;7.03;;;3.70;99.90;;;;;;5055905;28;20413;-62
2020/12/09 03:44:56;;;;;;;12.45;6.75;;;3.70;99.90;;;;;;5055376;28;20421;-61
2020/12/09 03:47:23;;;;;;;13.43;7.47;;;3.70;99.90;;;;;;5055734;28;20832;-62
2020/12/09 03:49:50;;;;;;;15.15;7.80;;;3.70;99.90;;;;;;5056407;28;20477;-61
2020/12/09 03:52:16;;;;;;;16.15;7.35;;;3.70;99.90;;;;;;5055909;28;20471;-62
2020/12/09 03:54:43;;;;;;;16.55;8.57;;;3.60;99.90;;;;;;5055042;28;20432;-62
2020/12/09 03:57:09;;;;;;;14.82;7.80;;;3.60;99.90;;;;;;5055459;28;20954;-61
2020/12/09 03:59:36;;;;;;;16.55;8.55;;;3.60;99.90;;;;;;5056180;28;20425;-62
2020/12/09 04:02:02;;;;;;;16.63;8.50;;;3.60;99.90;;;;;;5055593;28;20787;-62
2020/12/09 04:04:29;;;;;;;15.43;8.02;;;3.40;99.90;;;;;;5055779;28;20479;-61
2020/12/09 04:06:56;;;;;;;15.80;7.25;;;3.50;99.90;;;;;;5055488;28;20429;-62
2020/12/09 04:09:22;;;;;;;15.43;7.63;;;3.50;99.90;;;;;;5055758;28;20844;-61
2020/12/09 04:11:49;;;;;;;18.75;9.15;;;3.60;99.90;;;;;;5055522;28;20414;-61
2020/12/09 04:14:16;;;;;;;14.57;7.73;;;3.70;99.90;;;;;;5054918;28;20429;-61
2020/12/09 04:16:42;;;;;;;15.05;8.70;;;3.60;99.90;;;;;;5055334;28;20476;-61
2020/12/09 04:19:09;;;;;;;14.15;7.97;;;3.50;99.90;;;;;;5055072;28;20839;-61
2020/12/09 04:21:36;;;;;;;16.00;8.15;;;3.50;99.90;;;;;;5054147;28;20449;-61
2020/12/09 04:24:03;;;;;;;14.25;8.10;;;3.60;99.90;;;;;;5053253;28;20425;-62
2020/12/09 04:26:29;;;;;;;15.82;8.35;;;3.60;99.90;;;;;;5053647;28;20417;-61
2020/12/09 04:28:55;;;;;;;15.05;7.88;;;3.60;99.90;;;;;;5054378;28;20491;-61
2020/12/09 04:31:22;;;;;;;16.90;8.23;;;3.50;99.90;;;;;;5054637;28;20433;-61
2020/12/09 04:33:54;;;;;;;15.20;7.75;;;3.40;99.90;;;;;;5054688;28;20486;-61
2020/12/09 04:36:21;;;;;;;18.02;8.70;;;3.30;99.90;;;;;;5055029;28;20853;-60
2020/12/09 04:38:49;;;;;;;16.48;8.40;;;3.20;99.90;;;;;;5055320;28;20487;-61
2020/12/09 04:41:16;;;;;;;13.38;8.02;;;3.20;99.90;;;;;;5054802;28;20467;-61
2020/12/09 04:43:43;;;;;;;17.13;8.50;;;3.30;99.90;;;;;;5055713;28;20507;-61
2020/12/09 04:46:10;;;;;;;17.47;8.13;;;3.30;99.90;;;;;;5054531;28;20413;-62
2020/12/09 04:48:40;;;;;;;14.63;8.35;;;3.40;99.90;;;;;;5054471;28;20808;-61
2020/12/09 04:51:45;;;;;;;13.55;7.50;;;3.40;99.90;;;;;;5054326;28;20840;-61
2020/12/09 04:54:16;;;;;;;16.10;7.75;;;3.30;99.90;;;;;;5054377;28;20429;-61
2020/12/09 04:56:53;;;;;;;14.85;8.40;;;3.30;99.90;;;;;;5053200;28;20425;-62
2020/12/09 04:59:25;;;;;;;15.05;7.80;;;3.40;99.90;;;;;;5053953;28;20435;-61
2020/12/09 05:02:02;;;;;;;16.13;8.40;;;3.50;99.90;;;;;;5054138;28;20470;-61
2020/12/09 05:04:31;;;;;;;15.35;7.75;;;3.50;99.90;;;;;;5054168;28;20430;-62
2020/12/09 05:07:05;;;;;;;13.97;8.90;;;3.50;99.90;;;;;;5053786;28;20821;-61
2020/12/09 05:09:38;;;;;;;13.03;7.87;;;3.40;99.90;;;;;;5054327;28;20429;-62
2020/12/09 05:12:07;;;;;;;12.70;6.83;;;3.30;99.90;;;;;;5053301;28;20416;-63
2020/12/09 05:14:37;;;;;;;13.00;8.37;;;3.40;99.90;;;;;;5053373;28;20417;-62
2020/12/09 05:17:10;;;;;;;13.93;7.50;;;3.40;99.90;;;;;;5053848;28;20888;-62
2020/12/09 05:19:37;;;;;;;12.30;6.78;;;3.50;99.90;;;;;;5050492;28;20429;-61
2020/12/09 05:22:10;;;;;;;11.05;5.90;;;3.60;99.90;;;;;;5051090;28;20447;-59
2020/12/09 05:24:37;;;;;;;13.10;7.20;;;3.90;99.90;;;;;;5051612;28;20424;-59
2020/12/09 05:27:04;;;;;;;11.80;6.63;;;4.00;99.90;;;;;;5051487;28;20898;-59
2020/12/09 05:29:31;;;;;;;10.43;6.10;;;4.00;99.90;;;;;;5052183;28;20425;-59
2020/12/09 05:32:01;;;;;;;15.40;7.00;;;3.90;99.90;;;;;;5052252;28;20510;-59
2020/12/09 05:34:30;;;;;;;11.32;6.15;;;3.80;99.90;;;;;;5053951;28;20566;-59
2020/12/09 05:36:58;;;;;;;12.93;6.88;;;3.70;99.90;;;;;;5053732;28;20425;-59
2020/12/09 05:39:25;;;;;;;12.95;6.88;;;3.80;99.90;;;;;;5054482;28;20425;-59
2020/12/09 05:41:53;;;;;;;10.50;5.70;;;3.90;99.90;;;;;;5053869;28;20462;-59
2020/12/09 05:44:21;;;;;;;11.20;5.13;;;3.90;99.90;;;;;;5054049;28;20425;-60
2020/12/09 05:47:05;;;;;;;11.30;5.80;;;3.70;99.90;;;;;;5054217;28;20452;-59
2020/12/09 05:49:36;;;;;;;12.95;6.40;;;3.50;99.90;;;;;;5054508;28;20425;-59
2020/12/09 05:52:14;;;;;;;12.25;6.00;;;3.50;99.90;;;;;;5054210;28;20418;-59
2020/12/09 05:54:42;;;;;;;11.88;6.28;;;3.40;99.90;;;;;;5054083;28;20841;-59
2020/12/09 05:57:11;;;;;;;10.00;5.22;;;3.40;99.90;;;;;;5056381;28;20728;-59
2020/12/09 05:59:40;;;;;;;11.77;5.37;;;3.50;99.90;;;;;;5057686;28;20425;-59
2020/12/09 06:02:08;;;;;;;9.68;5.72;;;3.50;99.90;;;;;;5057313;28;20432;-59
2020/12/09 06:04:45;;;;;;;10.73;5.85;;;3.50;99.90;;;;;;5057706;28;20695;-58
2020/12/09 06:07:12;;;;;;;8.73;4.70;;;3.50;99.90;;;;;;5057030;28;20475;-59
2020/12/09 06:09:39;;;;;;;12.02;5.38;;;3.60;99.90;;;;;;5057504;28;20724;-59
2020/12/09 06:12:06;;;;;;;9.98;4.93;;;3.70;99.90;;;;;;5056069;28;20425;-59
2020/12/09 06:14:34;;;;;;;8.57;4.93;;;3.90;99.90;;;;;;5056806;28;20507;-58
2020/12/09 06:17:01;;;;;;;9.35;4.50;;;4.00;99.90;;;;;;5056213;28;20470;-58
2020/12/09 06:19:27;;;;;;;8.45;4.85;;;3.80;99.90;;;;;;5055039;28;20509;-58
2020/12/09 06:21:57;;;;;;;9.57;4.80;;;3.50;99.90;;;;;;5056463;28;20491;-58
2020/12/09 06:24:24;;;;;;;11.00;5.55;;;3.40;99.90;;;;;;5070832;28;20509;-59
2020/12/09 06:26:51;;;;;;;9.60;5.45;;;3.50;99.90;;;;;;5068797;28;20425;-59
2020/12/09 06:29:24;;;;;;;10.05;5.22;;;3.70;99.90;;;;;;5055561;28;20833;-59
2020/12/09 06:32:00;;;;;;;9.82;4.10;;;3.80;99.90;;;;;;5054595;28;20463;-59
2020/12/09 06:34:27;;;;;;;11.40;5.27;;;3.80;99.90;;;;;;5054921;28;20460;-59
2020/12/09 06:37:12;;;;;;;8.55;4.40;;;3.80;99.90;;;;;;5054287;28;20429;-59
2020/12/09 06:39:39;;;;;;;11.70;5.00;;;3.90;99.90;;;;;;5055143;28;20425;-60
2020/12/09 06:42:10;;;;;;;9.50;4.85;;;4.00;99.90;;;;;;5055465;28;20490;-59
2020/12/09 06:44:50;;;;;;;9.23;4.70;;;4.00;99.90;;;;;;5056545;28;20515;-59
2020/12/09 06:47:18;;;;;;;9.88;5.10;;;4.00;99.90;;;;;;5056188;28;20425;-58
2020/12/09 06:49:46;;;;;;;9.65;5.65;;;4.00;99.90;;;;;;5064507;28;20431;-60
2020/12/09 06:52:35;;;;;;;10.95;5.93;;;3.90;99.90;;;;;;5073803;28;20427;-60
2020/12/09 06:55:04;;;;;;;11.70;6.32;;;3.70;99.90;;;;;;5074236;28;20427;-60
2020/12/09 06:57:37;;;;;;;11.35;6.10;;;3.70;99.90;;;;;;5074869;28;20431;-58
2020/12/09 07:00:23;;;;;;;9.07;3.90;;;3.70;99.90;;;;;;5069940;28;20518;-60
2020/12/09 07:03:00;;;;;;;9.57;5.30;;;3.50;99.90;;;;;;5073999;28;20743;-60
2020/12/09 07:05:29;;;;;;;12.63;6.95;;;3.40;99.90;;;;;;5070029;28;20419;-60
2020/12/09 07:08:03;;;;;;;11.05;5.82;;;3.40;99.90;;;;;;5075312;28;20432;-60
2020/12/09 07:10:31;;;;;;;9.20;5.10;;;3.50;99.90;;;;;;5075155;28;20497;-60
2020/12/09 07:13:06;;;;;;;12.20;6.07;;;3.50;99.90;;;;;;5072251;28;20528;-59
2020/12/09 07:15:34;;;;;;;10.45;4.47;;;3.50;99.90;;;;;;5073688;28;20431;-60
2020/12/09 07:18:01;;;;;;;13.43;6.47;;;3.50;99.90;;;;;;5073828;28;20431;-60
2020/12/09 07:20:28;;;;;;;12.25;5.10;;;3.60;99.90;;;;;;5074878;28;20798;-60
2020/12/09 07:22:54;;;;;;;9.55;5.65;;;3.70;99.90;;;;;;5073916;28;20646;-60
2020/12/09 07:25:21;;;;;;;9.73;5.50;;;3.70;99.90;;;;;;5074207;28;20427;-60
2020/12/09 07:27:49;;;;;;;12.70;6.77;;;3.60;99.90;;;;;;5074376;28;20439;-60
2020/12/09 07:30:17;;;;;;;10.38;6.20;;;3.60;99.90;;;;;;5074618;28;20908;-60
2020/12/09 07:32:44;;;;;;;12.68;7.25;;;3.50;99.90;;;;;;5086076;28;20708;-60
2020/12/09 07:35:13;;;;;;;12.65;6.05;;;3.60;99.90;;;;;;5074485;28;20532;-60
2020/12/09 07:37:42;;;;;;;11.65;6.30;;;3.50;99.90;;;;;;5081987;28;20597;-59
2020/12/09 07:40:15;;;;;;;13.82;6.00;;;3.60;99.90;;;;;;5073100;28;20849;-60
2020/12/09 07:42:41;;;;;;;13.80;6.28;;;3.60;99.90;;;;;;5075216;28;20431;-60
2020/12/09 07:45:16;;;;;;;13.85;6.47;;;3.60;99.90;;;;;;5073723;28;20454;-59
2020/12/09 07:47:44;;;;;;;14.25;7.13;;;3.60;99.90;;;;;;5068002;28;20755;-59
2020/12/09 07:50:12;;;;;;;14.55;6.80;;;3.70;99.90;;;;;;5073925;28;20424;-59
2020/12/09 07:52:40;;;;;;;12.57;6.68;;;3.60;99.90;;;;;;5074385;28;20897;-59
2020/12/09 07:55:13;;;;;;;13.27;6.60;;;3.70;99.90;;;;;;5073534;28;20866;-60
2020/12/09 07:57:41;;;;;;;12.23;6.30;;;3.80;99.90;;;;;;5073879;28;20857;-60
2020/12/09 08:00:09;;;;;;;13.57;6.60;;;3.90;99.90;;;;;;5072658;28;20416;-60
2020/12/09 08:02:37;;;;;;;12.88;6.40;;;4.10;99.90;;;;;;5072410;28;20762;-60
2020/12/09 08:05:24;;;;;;;11.40;5.38;;;4.20;99.90;;;;;;5071207;28;20421;-60
2020/12/09 08:07:56;;;;;;;13.93;6.93;;;4.30;99.90;;;;;;5071879;28;20467;-60
2020/12/09 08:10:32;;;;;;;14.70;7.77;;;4.20;99.90;;;;;;5074351;28;20431;-60
2020/12/09 08:13:08;;;;;;;18.23;7.13;;;4.10;99.90;;;;;;5073311;28;20436;-60
2020/12/09 08:15:36;;;;;;;27.60;8.43;;;4.00;99.90;;;;;;5073887;28;20423;-60
2020/12/09 08:18:03;;;;;;;9.90;6.10;;;4.00;99.90;;;;;;5073973;28;20463;-60
2020/12/09 08:20:31;;;;;;;12.30;6.72;;;3.90;99.90;;;;;;5072171;28;20477;-58
2020/12/09 08:23:00;;;;;;;9.90;6.00;;;3.70;99.90;;;;;;5073516;28;20461;-59
2020/12/09 08:26:00;;;;;;;12.20;6.25;;;3.70;99.90;;;;;;5074006;28;20416;-59
2020/12/09 08:28:27;;;;;;;11.90;6.65;;;3.80;99.90;;;;;;5067361;28;20488;-60
2020/12/09 08:30:55;;;;;;;10.38;6.38;;;4.30;99.90;;;;;;5071836;28;20481;-59
2020/12/09 08:33:24;;;;;;;11.20;6.63;;;4.30;99.90;;;;;;5074037;28;20439;-59
2020/12/09 08:35:59;;;;;;;10.25;6.45;;;4.30;99.90;;;;;;5083295;28;20426;-59
2020/12/09 08:38:28;;;;;;;12.10;5.88;;;4.40;99.90;;;;;;5079731;28;20536;-60
2020/12/09 08:40:57;;;;;;;9.55;5.00;;;4.30;99.90;;;;;;5068228;28;20473;-60
2020/12/09 08:43:25;;;;;;;12.52;6.30;;;4.30;99.90;;;;;;5068202;28;20435;-60
2020/12/09 08:45:54;;;;;;;11.67;6.00;;;4.60;99.90;;;;;;5067108;28;20471;-59
2020/12/09 08:48:21;;;;;;;9.80;5.15;;;4.70;99.90;;;;;;5066802;28;20434;-60
2020/12/09 08:50:48;;;;;;;11.77;6.13;;;4.50;99.90;;;;;;5068694;28;20481;-60
2020/12/09 08:53:16;;;;;;;11.90;6.28;;;4.70;99.90;;;;;;5070657;28;20493;-60
2020/12/09 08:55:43;;;;;;;14.20;6.10;;;4.80;99.90;;;;;;5069141;28;20427;-60
2020/12/09 08:58:10;;;;;;;11.02;6.72;;;5.00;99.90;;;;;;5071123;28;20467;-61
2020/12/09 09:00:49;;;;;;;10.73;5.30;;;5.10;99.90;;;;;;5070825;28;20847;-61
2020/12/09 09:03:18;;;;;;;11.73;6.00;;;4.90;99.90;;;;;;5070846;28;20439;-60
2020/12/09 09:05:46;;;;;;;8.60;5.63;;;5.00;99.90;;;;;;5072432;28;20509;-60
2020/12/09 09:08:13;;;;;;;12.07;6.47;;;5.00;99.90;;;;;;5067232;28;20439;-60
2020/12/09 09:10:42;;;;;;;10.73;6.10;;;4.90;99.90;;;;;;5074420;28;20432;-60
2020/12/09 09:13:09;;;;;;;11.27;7.73;;;4.80;99.90;;;;;;5074854;28;20529;-60
2020/12/09 09:15:36;;;;;;;15.20;7.03;;;4.70;99.90;;;;;;5076312;28;20498;-60
2020/12/09 09:18:03;;;;;;;13.35;6.38;;;4.50;99.90;;;;;;5067801;28;20467;-59
2020/12/09 09:20:30;;;;;;;14.00;7.18;;;4.30;99.90;;;;;;5069104;28;20415;-59
2020/12/09 09:22:58;;;;;;;15.02;8.07;;;4.10;99.90;;;;;;5069462;28;20431;-59
2020/12/09 09:25:25;;;;;;;12.68;7.07;;;3.90;99.90;;;;;;5084986;28;20422;-59
2020/12/09 09:27:53;;;;;;;13.02;7.15;;;3.80;99.90;;;;;;5074220;28;20432;-59
2020/12/09 09:30:22;;;;;;;14.32;7.63;;;3.90;99.90;;;;;;5071293;28;20827;-59
2020/12/09 09:32:49;;;;;;;12.53;7.13;;;4.10;99.90;;;;;;5075818;28;20530;-59
2020/12/09 09:35:16;;;;;;;15.65;7.80;;;4.20;99.90;;;;;;5075658;28;20423;-59
2020/12/09 09:37:43;;;;;;;14.60;7.35;;;4.20;99.90;;;;;;5075958;28;20414;-60
2020/12/09 09:40:11;;;;;;;14.82;7.47;;;4.20;99.90;;;;;;5078685;28;20887;-60
2020/12/09 09:42:38;;;;;;;14.60;7.10;;;4.10;99.90;;;;;;5075939;28;20415;-60
2020/12/09 09:45:07;;;;;;;14.32;8.80;;;4.20;99.90;;;;;;5074734;28;20422;-59
2020/12/09 09:47:34;;;;;;;13.77;6.70;;;4.20;99.90;;;;;;5088815;28;20436;-58
2020/12/09 09:50:01;;;;;;;13.30;8.25;;;4.30;99.90;;;;;;5096987;28;20420;-59
2020/12/09 09:52:27;;;;;;;14.00;7.82;;;4.30;99.90;;;;;;5097145;28;20426;-59
2020/12/09 09:54:53;;;;;;;16.08;7.05;;;4.40;99.90;;;;;;5083146;28;20436;-59
2020/12/09 09:57:20;;;;;;;12.83;7.37;;;4.40;99.90;;;;;;5065344;28;20809;-59
2020/12/09 09:59:46;;;;;;;15.50;7.70;;;4.50;99.90;;;;;;5068895;28;20617;-59
2020/12/09 10:02:14;;;;;;;13.23;7.05;;;4.50;99.90;;;;;;5065275;28;20425;-59
2020/12/09 10:04:40;;;;;;;14.02;7.68;;;4.50;99.90;;;;;;5071309;28;20488;-60
2020/12/09 10:07:09;;;;;;;11.85;7.65;;;4.40;99.90;;;;;;5076240;28;20415;-59
2020/12/09 10:09:35;;;;;;;12.90;7.10;;;4.30;99.90;;;;;;5077164;28;20440;-60
2020/12/09 10:12:01;;;;;;;16.75;8.00;;;4.20;99.90;;;;;;5075859;28;20466;-59
2020/12/09 10:14:28;;;;;;;14.50;8.35;;;4.30;99.90;;;;;;5075268;28;20440;-60
2020/12/09 10:16:58;;;;;;;14.90;8.20;;;4.30;99.90;;;;;;5074958;28;20874;-59
2020/12/09 10:19:29;;;;;;;15.55;8.38;;;4.30;99.90;;;;;;5076160;28;20463;-59
2020/12/09 10:22:01;;;;;;;13.40;8.38;;;4.30;99.90;;;;;;5075923;28;20494;-59
2020/12/09 10:24:28;;;;;;;16.05;9.52;;;4.30;99.90;;;;;;5067239;28;20526;-59
2020/12/09 10:26:54;;;;;;;15.00;8.50;;;4.30;99.90;;;;;;5072496;28;20513;-59
2020/12/09 10:29:21;;;;;;;14.97;8.93;;;4.30;99.90;;;;;;5073818;28;20427;-59
2020/12/09 10:31:50;;;;;;;15.80;7.55;;;4.30;99.90;;;;;;5073466;28;20863;-59
2020/12/09 10:34:18;;;;;;;11.77;7.45;;;4.20;99.90;;;;;;5073404;28;20442;-59
2020/12/09 10:36:49;;;;;;;16.02;8.40;;;4.30;99.90;;;;;;5070670;28;20493;-59
2020/12/09 10:39:17;;;;;;;11.05;7.22;;;4.30;99.90;;;;;;5078735;28;20477;-59
2020/12/09 10:41:43;;;;;;;13.98;6.78;;;4.40;99.90;;;;;;5072821;28;20419;-59
2020/12/09 10:44:10;;;;;;;15.18;7.53;;;4.30;99.90;;;;;;5074046;28;20479;-60
2020/12/09 10:46:38;;;;;;;13.13;7.88;;;4.30;99.90;;;;;;5074444;28;20427;-59
2020/12/09 10:49:06;;;;;;;12.02;8.20;;;4.20;99.90;;;;;;5073690;28;20439;-60
2020/12/09 10:51:33;;;;;;;14.68;8.98;;;4.30;99.90;;;;;;5074409;28;20428;-60
2020/12/09 10:54:01;;;;;;;13.82;7.18;;;4.30;99.90;;;;;;5074262;28;20494;-58
2020/12/09 10:56:29;;;;;;;13.68;7.90;;;4.40;99.90;;;;;;5073519;28;20478;-59
2020/12/09 10:58:57;;;;;;;15.15;7.30;;;4.30;99.90;;;;;;5074729;28;20467;-59
2020/12/09 11:01:25;;;;;;;13.80;7.50;;;4.30;99.90;;;;;;5073016;28;20447;-61
2020/12/09 11:03:52;;;;;;;13.15;6.60;;;4.40;99.90;;;;;;5067793;28;20434;-58
2020/12/09 11:06:19;;;;;;;12.85;7.63;;;4.50;99.90;;;;;;5073358;28;20458;-58
2020/12/09 11:08:46;;;;;;;10.88;5.55;;;4.50;99.90;;;;;;5074555;28;20454;-57
2020/12/09 11:11:13;;;;;;;15.30;7.68;;;4.50;99.90;;;;;;5072665;28;20434;-58
2020/12/09 11:13:41;;;;;;;14.70;7.53;;;4.20;99.90;;;;;;5070337;28;20696;-58
2020/12/09 11:16:13;;;;;;;15.68;8.13;;;4.20;99.90;;;;;;5079006;28;20427;-58
2020/12/09 11:18:40;;;;;;;14.40;7.78;;;4.30;99.90;;;;;;5095212;28;20428;-59
2020/12/09 11:21:07;;;;;;;15.15;9.05;;;4.30;99.90;;;;;;5083968;28;20429;-59
2020/12/09 11:23:34;;;;;;;14.40;6.97;;;4.30;99.90;;;;;;5073819;28;20423;-59
2020/12/09 11:26:00;;;;;;;9.82;6.30;;;4.20;99.90;;;;;;5073621;28;20745;-60
2020/12/09 11:28:28;;;;;;;15.82;8.20;;;4.30;99.90;;;;;;5074102;28;20431;-61
2020/12/09 11:30:55;;;;;;;13.32;7.22;;;4.40;99.90;;;;;;5075720;28;20431;-60
2020/12/09 11:33:22;;;;;;;14.45;7.25;;;4.40;99.90;;;;;;5074164;28;20439;-59
2020/12/09 11:35:48;;;;;;;14.90;7.30;;;4.40;99.90;;;;;;5071375;28;20939;-59
2020/12/09 11:38:15;;;;;;;11.60;6.88;;;4.60;99.90;;;;;;5070804;28;20439;-58
2020/12/09 11:40:44;;;;;;;11.48;6.47;;;5.00;99.90;;;;;;5074357;28;20889;-59
2020/12/09 11:43:11;;;;;;;13.10;6.22;;;5.20;99.90;;;;;;5075107;28;20463;-59
2020/12/09 11:45:38;;;;;;;10.18;5.80;;;5.40;99.90;;;;;;5073624;28;20424;-58
2020/12/09 11:48:05;;;;;;;10.03;5.23;;;5.60;99.90;;;;;;5075863;28;20447;-59
2020/12/09 11:50:32;;;;;;;12.27;6.70;;;5.70;99.90;;;;;;5072675;28;20423;-58
2020/12/09 11:52:59;;;;;;;11.73;5.80;;;5.40;99.90;;;;;;5072760;28;20438;-58
2020/12/09 11:55:25;;;;;;;12.93;6.80;;;5.40;99.90;;;;;;5073555;28;20874;-58
2020/12/09 11:57:53;;;;;;;12.20;6.03;;;5.30;99.90;;;;;;5073629;28;20434;-59
2020/12/09 12:00:20;;;;;;;10.02;6.30;;;5.00;99.90;;;;;;5072151;28;20427;-58
2020/12/09 12:02:48;;;;;;;10.30;5.65;;;4.80;99.90;;;;;;5072774;28;20739;-59
2020/12/09 12:05:15;;;;;;;11.77;6.10;;;4.90;99.90;;;;;;5071433;28;20427;-59
2020/12/09 12:07:42;;;;;;;11.27;4.97;;;5.00;99.90;;;;;;5071177;28;20431;-59
2020/12/09 12:10:10;;;;;;;11.82;6.00;;;5.10;99.90;;;;;;5070226;28;20526;-58
2020/12/09 12:12:36;;;;;;;9.80;5.32;;;4.90;99.90;;;;;;5073036;28;20431;-60
2020/12/09 12:15:07;;;;;;;11.38;5.97;;;5.00;99.90;;;;;;5072338;28;20438;-58
2020/12/09 12:17:33;;;;;;;12.30;4.75;;;5.20;99.90;;;;;;5088772;28;20501;-59
2020/12/09 12:20:01;;;;;;;12.18;5.35;;;5.20;99.90;;;;;;5090277;28;20505;-59
2020/12/09 12:22:28;;;;;;;13.57;6.30;;;5.40;99.90;;;;;;5072177;28;20469;-59
2020/12/09 12:24:55;;;;;;;13.93;6.90;;;5.40;99.90;;;;;;5073798;28;20565;-58
2020/12/09 12:27:22;;;;;;;15.07;7.18;;;5.50;99.90;;;;;;5072894;28;20514;-58
2020/12/09 12:29:49;;;;;;;12.73;6.28;;;5.20;99.90;;;;;;5070657;28;20431;-58
2020/12/09 12:32:16;;;;;;;13.00;6.70;;;5.20;99.90;;;;;;5072877;28;20432;-59
2020/12/09 12:34:42;;;;;;;10.50;5.63;;;5.00;99.90;;;;;;5070961;28;20423;-60
2020/12/09 12:37:10;;;;;;;12.35;6.20;;;5.10;99.90;;;;;;5071670;28;20522;-60
2020/12/09 12:39:37;;;;;;;12.07;5.93;;;5.20;99.90;;;;;;5072929;28;20514;-59
2020/12/09 12:42:05;;;;;;;13.05;5.93;;;5.40;99.90;;;;;;5071772;28;20522;-59
2020/12/09 12:44:32;;;;;;;11.25;6.00;;;5.40;99.90;;;;;;5072530;28;20829;-58
2020/12/09 12:47:00;;;;;;;12.27;7.00;;;5.40;99.90;;;;;;5072804;28;20465;-58
2020/12/09 12:49:26;;;;;;;14.00;6.35;;;5.30;99.90;;;;;;5079095;28;20457;-59
2020/12/09 12:51:57;;;;;;;17.35;7.85;;;5.10;99.90;;;;;;5066729;28;20522;-59
2020/12/09 12:54:25;;;;;;;13.93;6.68;;;4.90;99.90;;;;;;5069713;28;20435;-58